Time;durP1;ratioP1;P1;durP2;ratioP2;P2;SDS_P1;SDS_P2;PMS_P1;PMS_P2;Temp;Humidity;BMP_temperature;BMP_pressure;BME280_temperature;BME280_humidity;BME280_pressure;Samples;Min_cycle;Max_cycle;Signal;HPM_P1;HPM_P2
2022/06/18 00:00:45;;;;;;;8.38;5.78;;;;;;;17.72;81.03;94897.22;5080256;28;20589;-73
2022/06/18 00:03:12;;;;;;;11.23;6.72;;;;;;;17.72;80.74;94903.47;5093612;28;20275;-74
2022/06/18 00:05:41;;;;;;;10.23;6.95;;;;;;;17.68;80.91;94905.34;5093238;28;20664;-74
2022/06/18 00:08:13;;;;;;;7.93;5.75;;;;;;;17.65;80.88;94908.81;5093687;28;20206;-74
2022/06/18 00:10:39;;;;;;;12.88;6.97;;;;;;;17.56;80.82;94904.72;5093439;28;20222;-73
2022/06/18 00:13:40;;;;;;;9.95;6.65;;;;;;;17.56;81.37;94901.97;5093137;28;20271;-73
2022/06/18 00:16:09;;;;;;;7.90;6.68;;;;;;;17.51;81.25;94894.84;5092983;28;20215;-73
2022/06/18 00:18:36;;;;;;;11.13;6.60;;;;;;;17.45;81.68;94890.84;5093280;28;20206;-75
2022/06/18 00:21:06;;;;;;;8.73;6.50;;;;;;;17.39;82.14;94892.28;5092690;28;20577;-73
2022/06/18 00:23:33;;;;;;;9.65;6.40;;;;;;;17.35;82.00;94891.47;5079343;28;20238;-73
2022/06/18 00:26:01;;;;;;;9.95;5.65;;;;;;;17.32;82.42;94892.97;5092846;28;20555;-72
2022/06/18 00:28:32;;;;;;;11.82;7.13;;;;;;;17.29;82.15;94890.94;5079008;28;20235;-73
2022/06/18 00:30:59;;;;;;;11.27;6.82;;;;;;;17.27;82.36;94884.25;5092393;28;20267;-73
2022/06/18 00:33:28;;;;;;;9.05;5.95;;;;;;;17.20;82.72;94889.63;5092968;28;20229;-75
2022/06/18 00:35:59;;;;;;;7.88;6.07;;;;;;;17.21;82.87;94885.72;5092749;28;20214;-74
2022/06/18 00:38:28;;;;;;;8.85;6.25;;;;;;;17.14;83.11;94885.56;5093067;28;20199;-74
2022/06/18 00:40:56;;;;;;;9.35;6.05;;;;;;;17.12;83.03;94885.13;5092524;28;20267;-74
2022/06/18 00:43:27;;;;;;;12.77;6.78;;;;;;;17.02;83.61;94879.09;5092860;28;20207;-74
2022/06/18 00:46:03;;;;;;;13.57;7.97;;;;;;;16.99;83.79;94885.31;5093349;28;20222;-75
2022/06/18 00:48:38;;;;;;;9.88;7.47;;;;;;;17.00;83.64;94886.88;5092740;28;20252;-75
2022/06/18 00:51:11;;;;;;;7.35;5.75;;;;;;;16.99;83.02;94885.31;5079985;28;20237;-74
2022/06/18 00:53:43;;;;;;;11.00;6.18;;;;;;;16.93;83.15;94892.25;5091712;28;20277;-75
2022/06/18 00:56:14;;;;;;;7.22;5.78;;;;;;;16.90;83.04;94882.00;5093216;28;20274;-74
2022/06/18 00:58:46;;;;;;;7.18;5.45;;;;;;;16.85;83.26;94892.44;5092734;28;20250;-75
2022/06/18 01:01:21;;;;;;;10.02;5.53;;;;;;;16.87;82.82;94884.66;5088012;28;20198;-75
2022/06/18 01:03:49;;;;;;;9.07;5.75;;;;;;;16.90;82.43;94884.75;5092177;28;20205;-74
2022/06/18 01:06:19;;;;;;;8.55;3.70;;;;;;;16.98;81.81;94883.72;5091925;28;20718;-74
2022/06/18 01:08:47;;;;;;;7.50;5.20;;;;;;;16.95;81.74;94884.44;5092527;28;20202;-74
2022/06/18 01:11:20;;;;;;;8.52;5.53;;;;;;;17.01;81.42;94880.25;5092540;28;20234;-74
2022/06/18 01:13:47;;;;;;;11.00;5.22;;;;;;;17.07;80.99;94875.28;5092500;28;20233;-74
2022/06/18 01:16:18;;;;;;;7.30;5.53;;;;;;;16.98;81.10;94883.72;5078805;28;20202;-75
2022/06/18 01:18:46;;;;;;;6.95;5.28;;;;;;;16.95;80.88;94884.44;5091854;28;20554;-74
2022/06/18 01:21:23;;;;;;;6.72;5.03;;;;;;;17.12;80.00;94882.41;5092338;28;20214;-74
2022/06/18 01:23:54;;;;;;;10.85;5.45;;;;;;;17.12;80.03;94887.88;5091345;28;20234;-75
2022/06/18 01:26:23;;;;;;;10.68;5.15;;;;;;;17.02;80.67;94887.31;5091990;28;20309;-75
2022/06/18 01:28:50;;;;;;;9.65;5.20;;;;;;;16.91;80.76;94883.59;5092240;28;20255;-74
2022/06/18 01:31:17;;;;;;;6.90;5.28;;;;;;;16.95;80.65;94887.16;5091716;28;20229;-73
2022/06/18 01:33:44;;;;;;;7.20;5.00;;;;;;;16.94;80.28;94877.41;5091809;28;20231;-73
2022/06/18 01:36:12;;;;;;;7.10;4.72;;;;;;;16.90;80.60;94882.00;5092013;28;20210;-72
2022/06/18 01:38:43;;;;;;;5.60;4.53;;;;;;;16.84;80.80;94874.44;5091291;28;20305;-73
2022/06/18 01:44:06;;;;;;;7.70;5.10;;;;;;;16.82;80.71;94880.25;5091777;28;20189;-74
2022/06/18 01:46:34;;;;;;;7.22;5.32;;;;;;;16.88;80.12;94878.03;5091707;28;20202;-74
2022/06/18 01:49:05;;;;;;;5.72;4.38;;;;;;;16.90;80.22;94879.28;5091615;28;20225;-73
2022/06/18 01:51:36;;;;;;;6.18;4.50;;;;;;;16.83;80.70;94881.06;5091097;28;20226;-73
2022/06/18 01:54:07;;;;;;;8.27;4.68;;;;;;;16.81;80.42;94875.94;5090987;28;20194;-73
2022/06/18 01:56:39;;;;;;;7.95;5.68;;;;;;;16.80;80.60;94887.28;5091333;28;20222;-74
2022/06/18 01:59:13;;;;;;;6.82;4.88;;;;;;;16.77;80.37;94877.84;5091801;28;20272;-73
2022/06/18 02:01:44;;;;;;;5.88;4.72;;;;;;;16.69;80.72;94882.34;5091647;28;20190;-73
2022/06/18 02:04:13;;;;;;;4.90;4.25;;;;;;;16.71;80.75;94884.75;5091771;28;20339;-72
2022/06/18 02:06:40;;;;;;;7.20;5.13;;;;;;;16.65;81.05;94880.72;5091391;28;20275;-72
2022/06/18 02:09:11;;;;;;;5.88;4.60;;;;;;;16.62;81.23;94875.94;5090839;28;20237;-72
2022/06/18 02:11:38;;;;;;;10.70;4.93;;;;;;;16.63;81.35;94883.03;5090875;28;20762;-73
2022/06/18 02:14:10;;;;;;;6.45;4.80;;;;;;;16.54;81.53;94871.44;5090892;28;20244;-73
2022/06/18 02:16:43;;;;;;;6.63;5.20;;;;;;;16.48;81.94;94875.63;5090966;28;20767;-75
2022/06/18 02:19:11;;;;;;;8.57;5.10;;;;;;;16.46;81.90;94867.00;5091280;28;20259;-73
2022/06/18 02:21:43;;;;;;;7.25;5.18;;;;;;;16.41;82.13;94864.53;5090991;28;20303;-73
2022/06/18 02:24:11;;;;;;;7.45;4.93;;;;;;;16.41;81.91;94864.53;5090574;28;20239;-74
2022/06/18 02:26:41;;;;;;;5.65;4.70;;;;;;;16.32;82.55;94868.28;5089944;28;20206;-74
2022/06/18 02:29:16;;;;;;;8.80;5.03;;;;;;;16.29;82.75;94869.00;5090128;28;20218;-71
2022/06/18 02:31:45;;;;;;;7.75;5.82;;;;;;;16.30;82.75;94875.25;5077875;28;20309;-73
2022/06/18 02:34:16;;;;;;;9.63;5.38;;;;;;;16.23;82.95;94870.44;5090856;28;20281;-73
2022/06/18 02:36:43;;;;;;;7.00;5.22;;;;;;;16.28;82.64;94883.81;5090708;28;20249;-73
2022/06/18 02:39:16;;;;;;;6.68;4.32;;;;;;;16.30;82.52;94880.72;5090202;28;20206;-74
2022/06/18 02:41:44;;;;;;;6.03;4.35;;;;;;;16.33;81.76;94883.53;5090671;28;20226;-74
2022/06/18 02:44:14;;;;;;;7.18;4.15;;;;;;;16.38;81.56;94881.69;5090576;28;20263;-72
2022/06/18 02:46:42;;;;;;;8.18;4.78;;;;;;;16.40;81.56;94887.59;5091425;28;20218;-74
2022/06/18 02:49:12;;;;;;;6.07;3.30;;;;;;;16.46;81.14;94877.94;5090908;28;20222;-72
2022/06/18 02:51:40;;;;;;;6.38;4.45;;;;;;;16.44;80.95;94874.75;5090640;28;20320;-72
2022/06/18 02:54:08;;;;;;;9.10;4.68;;;;;;;16.45;80.81;94865.41;5090545;28;20226;-74
2022/06/18 02:56:35;;;;;;;7.32;4.65;;;;;;;16.39;81.20;94861.38;5090192;28;20210;-74
2022/06/18 02:59:04;;;;;;;6.88;4.10;;;;;;;16.37;80.93;94869.16;5091243;28;20202;-74
2022/06/18 03:01:33;;;;;;;6.55;4.95;;;;;;;16.35;81.21;94867.56;5090810;28;20210;-74
2022/06/18 03:04:02;;;;;;;7.70;4.35;;;;;;;16.37;80.82;94874.63;5091057;28;20700;-73
2022/06/18 03:06:31;;;;;;;8.32;4.47;;;;;;;16.43;80.55;94878.63;5090646;28;20252;-74
2022/06/18 03:08:58;;;;;;;7.28;4.95;;;;;;;16.56;79.90;94875.41;5090734;28;20631;-73
2022/06/18 03:14:13;;;;;;;8.00;4.20;;;;;;;17.59;75.78;94871.91;5090603;28;20225;-73
2022/06/18 03:16:42;;;;;;;7.43;5.13;;;;;;;18.00;73.57;94872.19;5090578;28;20222;-74
2022/06/18 03:19:12;;;;;;;6.80;4.00;;;;;;;18.31;72.57;94862.88;5090771;28;20569;-73
2022/06/18 03:21:42;;;;;;;5.95;5.03;;;;;;;18.53;71.67;94863.94;5090143;28;20249;-73
2022/06/18 03:24:09;;;;;;;4.70;4.15;;;;;;;18.82;70.19;94860.41;5090800;28;20275;-74
2022/06/18 03:26:37;;;;;;;7.03;4.22;;;;;;;19.39;68.59;94852.78;5090126;28;20219;-74
2022/06/18 03:29:05;;;;;;;3.97;3.58;;;;;;;19.51;67.44;94852.53;5093498;28;20199;-74
2022/06/18 03:31:32;;;;;;;4.70;3.53;;;;;;;19.79;66.26;94861.03;5094352;28;20234;-73
2022/06/18 03:34:00;;;;;;;5.30;3.78;;;;;;;20.12;65.26;94854.56;5094173;28;20704;-73
2022/06/18 03:36:27;;;;;;;7.22;3.80;;;;;;;20.34;63.89;94863.78;5080882;28;20219;-73
2022/06/18 03:38:54;;;;;;;6.38;3.58;;;;;;;20.11;64.71;94871.47;5094118;28;21032;-74
2022/06/18 03:41:22;;;;;;;6.38;4.60;;;;;;;20.71;63.01;94871.06;5093218;28;20299;-73
2022/06/18 03:43:52;;;;;;;5.72;4.65;;;;;;;20.61;63.11;94877.31;5094153;28;20590;-71
2022/06/18 03:46:19;;;;;;;8.02;4.47;;;;;;;20.96;62.44;94877.47;5094121;28;20198;-72
2022/06/18 03:48:50;;;;;;;6.80;4.65;;;;;;;21.02;62.05;94875.94;5094026;28;20211;-73
2022/06/18 03:51:19;;;;;;;3.55;3.00;;;;;;;21.64;60.79;94872.94;5093756;28;20553;-73
2022/06/18 03:53:46;;;;;;;4.68;3.42;;;;;;;21.48;60.13;94875.28;5093783;28;20226;-72
2022/06/18 03:56:15;;;;;;;5.25;4.32;;;;;;;21.58;59.60;94874.53;5093896;28;20203;-73
2022/06/18 03:58:42;;;;;;;4.72;4.20;;;;;;;21.53;60.14;94880.41;5092939;28;20203;-73
2022/06/18 04:01:11;;;;;;;5.65;4.95;;;;;;;21.76;59.09;94880.03;5093674;28;20198;-73
2022/06/18 04:03:38;;;;;;;7.32;4.63;;;;;;;22.61;57.00;94874.50;5093682;28;20198;-73
2022/06/18 04:06:06;;;;;;;4.80;3.90;;;;;;;23.58;54.73;94870.16;5093653;28;20737;-74
2022/06/18 04:08:34;;;;;;;3.90;3.17;;;;;;;23.43;54.40;94874.19;5093810;28;20611;-73
2022/06/18 04:11:01;;;;;;;4.80;4.25;;;;;;;23.16;54.20;94877.47;5093355;28;20229;-73
2022/06/18 04:13:29;;;;;;;4.50;4.10;;;;;;;23.16;54.28;94877.47;5092999;28;20226;-73
2022/06/18 04:15:56;;;;;;;4.57;4.18;;;;;;;22.24;56.59;94873.00;5093544;28;20198;-74
2022/06/18 04:18:22;;;;;;;5.53;4.15;;;;;;;22.43;56.05;94874.53;5093382;28;20727;-73
2022/06/18 04:20:50;;;;;;;7.28;4.20;;;;;;;23.44;54.26;94875.75;5093425;28;20218;-74
2022/06/18 04:23:17;;;;;;;4.75;3.70;;;;;;;23.73;52.97;94877.19;5093276;28;20230;-74
2022/06/18 04:25:45;;;;;;;4.95;3.40;;;;;;;22.20;56.73;94887.97;5093016;28;20275;-72
2022/06/18 04:28:12;;;;;;;11.00;3.80;;;;;;;23.91;53.54;94883.38;5092887;28;20271;-73
2022/06/18 04:30:40;;;;;;;4.43;4.03;;;;;;;25.27;49.60;94878.09;5092772;28;20202;-74
2022/06/18 04:33:07;;;;;;;4.28;3.80;;;;;;;24.03;51.48;94884.88;5092805;28;20234;-73
2022/06/18 04:35:34;;;;;;;7.10;3.95;;;;;;;23.58;53.73;94887.56;5092275;28;20236;-73
2022/06/18 04:38:02;;;;;;;4.00;3.55;;;;;;;22.80;55.27;94892.63;5092078;28;20214;-73
2022/06/18 04:40:32;;;;;;;4.10;3.70;;;;;;;23.74;52.30;94881.53;5092236;28;20214;-73
2022/06/18 04:43:01;;;;;;;4.03;3.63;;;;;;;24.48;51.40;94882.13;5079416;28;20230;-74
2022/06/18 04:45:29;;;;;;;3.85;3.38;;;;;;;25.57;48.77;94879.25;5092761;28;20241;-75
2022/06/18 04:47:57;;;;;;;4.20;3.50;;;;;;;25.91;47.83;94870.88;5092832;28;20571;-74
2022/06/18 04:50:27;;;;;;;3.78;3.47;;;;;;;26.14;46.47;94880.00;5078454;28;20234;-74
2022/06/18 04:52:53;;;;;;;4.68;4.07;;;;;;;25.22;47.85;94881.31;5092117;28;20573;-74
2022/06/18 04:55:20;;;;;;;3.97;3.10;;;;;;;25.81;47.35;94875.41;5092947;28;20213;-75
2022/06/18 04:57:48;;;;;;;5.13;3.63;;;;;;;26.39;45.64;94874.06;5092383;28;20202;-74
2022/06/18 05:00:17;;;;;;;4.13;3.35;;;;;;;25.26;47.83;94882.06;5092332;28;20202;-76
2022/06/18 05:02:44;;;;;;;4.93;3.50;;;;;;;25.86;46.29;94869.34;5092401;28;20218;-75
2022/06/18 05:05:17;;;;;;;3.63;3.30;;;;;;;26.88;44.80;94869.59;5092734;28;20559;-76
2022/06/18 05:07:44;;;;;;;7.97;5.65;;;;;;;26.08;46.41;94878.94;5092406;28;20680;-78
2022/06/18 05:10:11;;;;;;;4.03;3.17;;;;;;;25.69;46.58;94875.97;5086847;28;20642;-79
2022/06/18 05:12:38;;;;;;;6.05;3.35;;;;;;;26.11;45.93;94868.94;5085141;28;20295;-80
2022/06/18 05:15:07;;;;;;;4.13;3.42;;;;;;;25.89;46.36;94879.63;5075094;28;20713;-77
2022/06/18 05:17:37;;;;;;;4.90;3.50;;;;;;;26.52;45.12;94877.81;5092520;28;20218;-83
2022/06/18 05:20:06;;;;;;;4.38;3.33;;;;;;;26.34;45.79;94882.13;5092132;28;20931;-79
2022/06/18 05:22:33;;;;;;;3.90;3.50;;;;;;;27.23;43.82;94878.47;5092081;28;20251;-78
2022/06/18 05:25:00;;;;;;;4.50;3.35;;;;;;;27.70;42.85;94889.44;5091268;28;20234;-77
2022/06/18 05:27:30;;;;;;;3.92;3.13;;;;;;;28.68;41.67;94877.13;5091703;28;20195;-78
2022/06/18 05:29:58;;;;;;;6.68;3.50;;;;;;;27.25;43.28;94878.81;5091294;28;20638;-78
2022/06/18 05:32:25;;;;;;;4.18;3.10;;;;;;;27.32;43.22;94886.25;5092008;28;20222;-80
2022/06/18 05:34:53;;;;;;;4.88;3.30;;;;;;;27.80;42.52;94875.28;5079070;28;20218;-77
2022/06/18 05:37:22;;;;;;;4.05;3.10;;;;;;;28.20;41.82;94881.50;5091911;28;20226;-76
2022/06/18 05:39:49;;;;;;;3.80;3.30;;;;;;;28.14;41.52;94882.44;5088821;28;20218;-75
2022/06/18 05:42:16;;;;;;;5.75;3.45;;;;;;;29.09;40.27;94884.03;5086013;28;20280;-77
2022/06/18 05:44:42;;;;;;;3.53;3.20;;;;;;;28.50;40.97;94887.94;5092061;28;20202;-76
2022/06/18 05:47:14;;;;;;;4.32;3.30;;;;;;;28.49;41.89;94889.16;5077407;28;20753;-77
2022/06/18 05:49:41;;;;;;;6.15;3.95;;;;;;;26.51;44.82;94908.81;5091522;28;20749;-78
2022/06/18 05:52:10;;;;;;;7.00;3.83;;;;;;;26.61;45.11;94901.50;5090872;28;20698;-77
2022/06/18 05:54:37;;;;;;;4.63;3.20;;;;;;;28.08;41.79;94910.03;5091294;28;20611;-75
2022/06/18 05:57:05;;;;;;;5.25;3.60;;;;;;;28.96;39.53;94898.72;5091315;28;20612;-77
2022/06/18 05:59:32;;;;;;;5.68;3.75;;;;;;;29.20;39.68;94901.25;5091673;28;20279;-77
2022/06/18 06:01:59;;;;;;;4.88;3.45;;;;;;;28.88;40.85;94900.09;5090731;28;20222;-78
2022/06/18 06:04:27;;;;;;;7.32;3.55;;;;;;;30.13;38.88;94879.75;5091514;28;20706;-77
2022/06/18 06:06:53;;;;;;;3.67;3.20;;;;;;;29.74;38.19;94900.50;5091227;28;20267;-75
2022/06/18 06:12:05;;;;;;;6.15;3.30;;;;;;;31.32;35.28;94892.91;5091240;28;20214;-77
2022/06/18 06:14:32;;;;;;;3.83;3.17;;;;;;;31.11;35.70;94893.69;5091329;28;20430;-78
2022/06/18 06:16:58;;;;;;;4.47;3.22;;;;;;;32.29;33.98;94900.03;5077956;28;20202;-76
2022/06/18 06:19:25;;;;;;;5.50;3.50;;;;;;;31.88;34.03;94900.44;5091563;28;20626;-76
2022/06/18 06:21:52;;;;;;;4.65;3.70;;;;;;;32.97;32.33;94895.19;5077717;28;20198;-77
2022/06/18 06:24:19;;;;;;;4.25;2.90;;;;;;;33.31;32.36;94893.38;5090602;28;20234;-78
2022/06/18 06:26:47;;;;;;;3.40;3.10;;;;;;;30.66;35.67;94897.59;5091266;28;20259;-77
2022/06/18 06:29:14;;;;;;;4.22;3.47;;;;;;;30.90;35.84;94890.38;5090632;28;20630;-78
2022/06/18 06:31:40;;;;;;;4.57;3.38;;;;;;;31.50;34.83;94893.03;5090842;28;20226;-76
2022/06/18 06:34:07;;;;;;;5.47;3.72;;;;;;;28.88;39.18;94902.91;5090687;28;20283;-74
2022/06/18 06:36:34;;;;;;;3.33;3.03;;;;;;;30.13;36.65;94905.69;5090578;28;20206;-75
2022/06/18 06:39:01;;;;;;;3.63;3.03;;;;;;;29.97;36.64;94903.78;5084163;28;20226;-75
2022/06/18 06:41:30;;;;;;;3.63;3.30;;;;;;;30.83;35.83;94896.22;5088881;28;20561;-76
2022/06/18 06:43:58;;;;;;;4.45;3.15;;;;;;;30.78;35.30;94893.97;5090324;28;20653;-76
2022/06/18 06:46:25;;;;;;;3.90;3.30;;;;;;;29.36;37.72;94912.34;5090822;28;20310;-77
2022/06/18 06:48:51;;;;;;;3.60;2.88;;;;;;;29.53;38.36;94911.06;5091417;28;20197;-77
2022/06/18 06:51:21;;;;;;;3.60;2.90;;;;;;;31.78;34.99;94891.22;5090010;28;20206;-77
2022/06/18 06:53:48;;;;;;;3.47;3.17;;;;;;;30.54;34.89;94904.00;5090613;28;20230;-74
2022/06/18 06:59:04;;;;;;;4.55;3.30;;;;;;;32.17;33.68;94895.28;5091005;28;20713;-75
2022/06/18 07:01:31;;;;;;;5.40;3.42;;;;;;;31.75;33.59;94897.72;5091631;28;20222;-78
2022/06/18 07:03:59;;;;;;;4.20;3.35;;;;;;;28.56;38.65;94905.72;5094649;28;20295;-77
2022/06/18 07:06:25;;;;;;;6.63;3.45;;;;;;;27.97;39.10;94906.72;5092371;28;20232;-76
2022/06/18 07:08:53;;;;;;;6.57;3.45;;;;;;;29.02;39.05;94900.94;5074592;28;20207;-76
2022/06/18 07:11:20;;;;;;;4.63;3.20;;;;;;;30.57;36.23;94900.31;5074794;28;20223;-78
2022/06/18 07:13:47;;;;;;;3.85;3.35;;;;;;;29.50;36.33;94909.19;5074674;28;20238;-76
2022/06/18 07:16:16;;;;;;;3.53;3.00;;;;;;;29.85;36.13;94895.38;5074750;28;20249;-77
2022/06/18 07:18:43;;;;;;;5.63;3.50;;;;;;;29.68;37.05;94901.06;5074484;28;20241;-77
2022/06/18 07:21:13;;;;;;;4.65;3.17;;;;;;;29.88;35.84;94902.88;5074437;28;20230;-77
2022/06/18 07:23:40;;;;;;;4.22;3.15;;;;;;;30.44;34.81;94893.94;5073792;28;20292;-77
2022/06/18 07:26:07;;;;;;;3.90;3.35;;;;;;;30.33;34.31;94892.28;5074273;28;20762;-76
2022/06/18 07:28:34;;;;;;;4.97;3.53;;;;;;;29.76;35.79;94903.63;5074503;28;20206;-78
2022/06/18 07:31:02;;;;;;;4.22;3.35;;;;;;;29.68;35.47;94909.44;5074395;28;20222;-77
2022/06/18 07:33:34;;;;;;;3.97;3.20;;;;;;;29.55;35.06;94900.25;5073526;28;20250;-77
2022/06/18 07:36:00;;;;;;;4.38;3.22;;;;;;;28.37;37.33;94903.81;5073971;28;20339;-77
2022/06/18 07:38:27;;;;;;;3.95;3.10;;;;;;;27.80;38.75;94907.91;5073858;28;20268;-76
2022/06/18 07:40:55;;;;;;;5.35;3.47;;;;;;;27.75;39.48;94905.59;5074079;28;20286;-74
2022/06/18 07:43:32;;;;;;;5.68;3.47;;;;;;;29.13;36.45;94902.22;5073651;28;20223;-78
2022/06/18 07:45:58;;;;;;;6.47;4.43;;;;;;;29.89;35.37;94896.84;5074161;28;20600;-78
2022/06/18 07:48:25;;;;;;;3.05;2.70;;;;;;;30.90;32.69;94895.97;5073895;28;20206;-79
2022/06/18 07:50:53;;;;;;;3.50;3.00;;;;;;;30.92;33.80;94892.72;5073677;28;20210;-78
2022/06/18 07:53:22;;;;;;;6.15;2.90;;;;;;;29.66;35.59;94900.72;5073759;28;20296;-78
2022/06/18 07:55:50;;;;;;;4.82;3.00;;;;;;;28.80;35.91;94901.53;5077595;28;20225;-78
2022/06/18 07:58:18;;;;;;;3.67;3.28;;;;;;;28.79;35.74;94897.19;5094090;28;20241;-79
2022/06/18 08:00:45;;;;;;;4.10;3.00;;;;;;;29.91;36.37;94891.59;5094033;28;20259;-79
2022/06/18 08:03:13;;;;;;;4.63;3.80;;;;;;;29.18;35.62;94898.91;5092669;28;20283;-78
2022/06/18 08:05:41;;;;;;;4.22;2.90;;;;;;;29.62;34.76;94891.66;5093957;28;20283;-78
2022/06/18 08:08:09;;;;;;;3.90;3.28;;;;;;;29.62;35.44;94894.47;5093082;28;20198;-78
2022/06/18 08:10:38;;;;;;;5.18;3.30;;;;;;;31.17;34.35;94887.03;5093394;28;20567;-78
2022/06/18 08:13:05;;;;;;;4.32;3.55;;;;;;;28.94;36.07;94892.78;5091897;28;20825;-78
2022/06/18 08:15:32;;;;;;;3.78;3.47;;;;;;;29.00;36.40;94893.00;5094149;28;20303;-79
2022/06/18 08:18:00;;;;;;;4.43;3.58;;;;;;;29.44;37.37;94905.38;5093788;28;20198;-79
2022/06/18 08:20:27;;;;;;;4.68;3.60;;;;;;;29.69;36.61;94894.25;5093773;28;20704;-78
2022/06/18 08:22:57;;;;;;;3.70;3.40;;;;;;;29.37;35.16;94888.81;5093070;28;20281;-78
2022/06/18 08:25:28;;;;;;;4.63;3.65;;;;;;;28.42;36.79;94892.94;5092546;28;20242;-77
2022/06/18 08:27:56;;;;;;;5.82;3.60;;;;;;;28.58;37.15;94894.91;5093515;28;20241;-79
2022/06/18 08:30:24;;;;;;;5.63;3.20;;;;;;;27.41;38.28;94898.38;5092393;28;20214;-76
2022/06/18 08:32:51;;;;;;;3.78;3.42;;;;;;;26.61;41.07;94902.28;5091931;28;20252;-78
2022/06/18 08:35:18;;;;;;;4.35;2.80;;;;;;;26.71;40.54;94906.84;5092666;28;20219;-76
2022/06/18 08:37:45;;;;;;;3.58;3.28;;;;;;;26.94;41.24;94902.50;5092205;28;20227;-78
2022/06/18 08:40:36;;;;;;;3.50;3.20;;;;;;;27.24;41.60;94891.16;5093456;28;20203;-77
2022/06/18 08:43:15;;;;;;;4.38;3.65;;;;;;;25.29;43.85;94902.63;5093212;28;20275;-78
2022/06/18 08:45:47;;;;;;;4.57;3.60;;;;;;;25.13;45.67;94906.00;5092633;28;20243;-78
2022/06/18 08:48:38;;;;;;;4.75;3.90;;;;;;;25.54;44.84;94891.22;5092876;28;20260;-79
2022/06/18 08:51:17;;;;;;;3.88;3.47;;;;;;;24.71;45.83;94908.03;5092825;28;20182;-75
2022/06/18 08:54:07;;;;;;;3.42;3.13;;;;;;;24.37;46.13;94904.38;5092465;28;20230;-77
2022/06/18 08:56:40;;;;;;;3.78;3.33;;;;;;;24.47;45.90;94903.50;5092930;28;20214;-79
2022/06/18 08:59:24;;;;;;;4.38;3.47;;;;;;;24.83;45.05;94897.59;5092707;28;20657;-78
2022/06/18 09:01:57;;;;;;;3.97;3.67;;;;;;;25.25;44.31;94894.38;5091903;28;20226;-79
2022/06/18 09:04:38;;;;;;;3.88;3.25;;;;;;;24.56;46.75;94903.03;5092209;28;20222;-80
2022/06/18 09:07:25;;;;;;;5.68;3.88;;;;;;;24.61;48.65;94903.34;5092839;28;20190;-79
2022/06/18 09:10:03;;;;;;;5.82;3.90;;;;;;;24.23;47.33;94904.50;5092622;28;20214;-80
2022/06/18 09:12:33;;;;;;;4.93;4.00;;;;;;;24.98;48.02;94893.50;5092698;28;20213;-80
2022/06/18 09:15:05;;;;;;;4.22;3.83;;;;;;;25.68;44.82;94879.97;5092807;28;20367;-79
2022/06/18 09:17:37;;;;;;;6.57;3.60;;;;;;;25.80;44.98;94876.59;5092389;28;20669;-78
2022/06/18 09:20:09;;;;;;;4.00;3.60;;;;;;;25.56;42.96;94880.50;5092387;28;20640;-78
2022/06/18 09:22:43;;;;;;;5.03;3.75;;;;;;;26.41;42.98;94866.09;5092553;28;20218;-78
2022/06/18 09:25:15;;;;;;;4.40;3.80;;;;;;;25.96;44.76;94868.44;5091267;28;20230;-75
2022/06/18 09:27:47;;;;;;;4.00;3.60;;;;;;;25.84;44.51;94866.22;5092273;28;20191;-81
2022/06/18 09:30:21;;;;;;;3.67;3.38;;;;;;;24.79;46.58;94884.56;5092607;28;20202;-76
2022/06/18 09:32:52;;;;;;;5.25;3.92;;;;;;;23.46;50.31;94885.22;5091996;28;20754;-76
2022/06/18 09:35:24;;;;;;;5.10;3.58;;;;;;;23.44;50.60;94895.13;5092093;28;20290;-71
2022/06/18 09:37:56;;;;;;;5.07;3.85;;;;;;;23.49;51.27;94883.63;5092471;28;20260;-74
2022/06/18 09:40:28;;;;;;;3.55;3.25;;;;;;;23.11;52.00;94888.94;5091886;28;20267;-77
2022/06/18 09:43:02;;;;;;;5.85;3.35;;;;;;;23.30;49.15;94894.00;5092222;28;20194;-79
2022/06/18 09:45:37;;;;;;;4.20;3.30;;;;;;;23.43;47.71;94890.78;5092314;28;20194;-79
2022/06/18 09:48:05;;;;;;;4.05;3.55;;;;;;;23.37;46.48;94899.47;5092696;28;20222;-79
2022/06/18 09:50:38;;;;;;;8.30;3.83;;;;;;;23.74;47.84;94898.13;5092640;28;20202;-78
2022/06/18 09:53:08;;;;;;;5.00;3.85;;;;;;;24.06;48.04;94901.44;5092403;28;20268;-78
2022/06/18 09:55:41;;;;;;;3.65;3.28;;;;;;;24.26;48.31;94892.63;5091326;28;20275;-78
2022/06/18 09:58:14;;;;;;;4.15;3.75;;;;;;;24.31;48.00;94894.97;5091828;28;20240;-78
2022/06/18 10:00:44;;;;;;;4.18;3.78;;;;;;;24.30;48.64;94893.38;5091774;28;20309;-78
2022/06/18 10:06:52;;;;;;;3.75;3.35;;;;;;;25.18;46.29;94891.66;5091986;28;20640;-79
2022/06/18 10:08:49;;;;;;;3.60;3.30;;;;;;;25.50;44.92;94880.97;5091549;28;20228;-78
2022/06/18 10:11:18;;;;;;;5.38;3.63;;;;;;;26.33;43.38;94872.22;5091505;28;20215;-79
2022/06/18 10:13:52;;;;;;;6.35;3.70;;;;;;;26.77;41.69;94871.81;5091530;28;20272;-79
2022/06/18 10:16:33;;;;;;;4.63;3.53;;;;;;;27.51;42.65;94869.50;5091870;28;20233;-80
2022/06/18 10:19:10;;;;;;;3.80;3.50;;;;;;;28.09;40.19;94864.25;5091853;28;20231;-79
2022/06/18 10:21:43;;;;;;;5.88;3.83;;;;;;;28.07;41.34;94861.09;5091560;28;20218;-76
2022/06/18 10:24:19;;;;;;;3.80;3.45;;;;;;;27.83;39.99;94862.47;5091392;28;20229;-75
2022/06/18 10:26:52;;;;;;;3.97;3.58;;;;;;;26.89;41.46;94865.63;5091360;28;20218;-76
2022/06/18 10:29:35;;;;;;;5.78;3.72;;;;;;;26.62;42.26;94859.38;5091853;28;20267;-75
2022/06/18 10:32:15;;;;;;;4.20;3.80;;;;;;;27.01;41.78;94860.66;5091814;28;20225;-76
2022/06/18 10:34:59;;;;;;;4.53;4.00;;;;;;;26.80;42.79;94870.94;5091054;28;20241;-77
2022/06/18 10:37:38;;;;;;;4.93;3.67;;;;;;;26.29;43.63;94857.59;5091063;28;20202;-78
2022/06/18 10:40:14;;;;;;;4.15;3.75;;;;;;;26.43;43.97;94857.34;5091412;28;20271;-78
2022/06/18 10:42:57;;;;;;;4.97;3.60;;;;;;;25.73;45.46;94871.13;5091019;28;20194;-75
2022/06/18 10:45:31;;;;;;;4.60;4.20;;;;;;;24.81;48.50;94867.53;5090884;28;20236;-77
2022/06/18 10:48:00;;;;;;;5.05;4.10;;;;;;;23.93;50.30;94869.91;5090946;28;20203;-78
2022/06/18 10:50:28;;;;;;;6.75;3.50;;;;;;;23.57;52.42;94879.66;5090864;28;20225;-73
2022/06/18 10:53:00;;;;;;;6.28;4.32;;;;;;;22.83;55.63;94880.75;5091391;28;20234;-78
2022/06/18 10:55:27;;;;;;;4.30;3.63;;;;;;;22.44;56.39;94870.56;5091264;28;20593;-72
2022/06/18 10:57:54;;;;;;;5.38;3.85;;;;;;;22.39;55.88;94884.00;5090827;28;20222;-76
2022/06/18 11:00:24;;;;;;;5.15;3.80;;;;;;;22.50;55.37;94874.53;5090318;28;20229;-75
2022/06/18 11:02:53;;;;;;;5.70;4.50;;;;;;;22.60;56.06;94879.22;5090678;28;20190;-74
2022/06/18 11:05:28;;;;;;;5.55;4.25;;;;;;;22.50;56.25;94885.56;5090830;28;20313;-78
2022/06/18 11:07:55;;;;;;;5.30;4.43;;;;;;;22.68;56.83;94880.81;5090873;28;20221;-79
2022/06/18 11:10:27;;;;;;;5.63;4.30;;;;;;;22.18;58.55;94895.84;5091064;28;20748;-78
2022/06/18 11:12:56;;;;;;;5.65;4.82;;;;;;;21.57;65.04;94895.00;5090783;28;20190;-79
2022/06/18 11:15:26;;;;;;;7.90;5.47;;;;;;;20.53;68.28;94915.81;5090377;28;20701;-74
2022/06/18 11:17:53;;;;;;;8.50;5.65;;;;;;;19.58;74.95;94913.03;5090470;28;20247;-76
2022/06/18 11:20:23;;;;;;;9.07;6.07;;;;;;;19.06;76.96;94912.06;5090604;28;20218;-79
2022/06/18 11:22:54;;;;;;;6.50;5.75;;;;;;;18.79;79.77;94902.31;5091118;28;20218;-75
2022/06/18 11:25:32;;;;;;;31.52;14.55;;;;;;;18.80;77.77;94903.91;5090761;28;20238;-80
2022/06/18 11:28:02;;;;;;;15.32;9.10;;;;;;;19.08;77.71;94911.72;5090761;28;20194;-80
2022/06/18 11:30:32;;;;;;;6.68;3.85;;;;;;;19.14;73.95;94913.72;5090807;28;20222;-79
2022/06/18 11:32:59;;;;;;;4.60;3.55;;;;;;;19.33;73.37;94920.22;5091344;28;20309;-80
2022/06/18 11:35:30;;;;;;;4.25;3.22;;;;;;;19.20;71.70;94932.63;5091201;28;20237;-80
2022/06/18 11:38:01;;;;;;;6.10;3.28;;;;;;;19.15;72.98;94931.00;5090329;28;20219;-80
2022/06/18 11:40:29;;;;;;;10.05;4.45;;;;;;;19.12;72.19;94927.06;5091121;28;20186;-82
2022/06/18 11:42:59;;;;;;;4.45;3.42;;;;;;;19.34;73.79;94930.84;5090876;28;20202;-80
2022/06/18 11:45:40;;;;;;;5.50;3.58;;;;;;;19.27;72.98;94944.47;5090820;28;20202;-82
2022/06/18 11:48:15;;;;;;;4.97;3.65;;;;;;;20.01;73.88;94938.19;5090839;28;20549;-84
2022/06/18 11:50:49;;;;;;;6.07;3.38;;;;;;;20.73;70.15;94934.81;5094517;28;20222;-82
2022/06/18 11:53:22;;;;;;;7.30;3.63;;;;;;;21.18;68.57;94917.69;5094136;28;20291;-79
2022/06/18 11:55:53;;;;;;;4.40;3.03;;;;;;;21.44;67.43;94918.63;5094281;28;20598;-77
2022/06/18 11:58:27;;;;;;;3.75;3.08;;;;;;;21.67;67.20;94916.28;5093735;28;20720;-80